Flight Track Log - Related Links

Times and Time Zones

All times are in EDT time to prevent confusion due to time zone crossing. See the N717HD flight status page for this flight to view local times or setup timezone preferences in your user account.

Time Position Orientation Groundspeed Altitude Reporting Facility
EDT Latitude Longitude Course Direction KTS MPH feet Rate Location/Type
Fri 11:43:02 AM 26.0750 -80.1367 85° East 174 200 700  Level Miami Center
Fri 11:43:45 AM 26.0778 -80.0975 80° East 184 212 2,400 2,423 Climbing Miami Center
Fri 11:44:46 AM 26.0875 -80.0375 24° Northeast 198 228 4,900 1,279 Climbing Miami Center
Fri 11:45:47 AM 26.1444 -80.0089 318° Northwest 281 323 5,000 49 Climbing Miami Center
Fri 11:46:48 AM 26.2019 -80.0661 287° West 276 318 5,000 1,415 Level Miami Center
Fri 11:47:50 AM 26.2231 -80.1408 285° West 234 269 7,900 2,127 Climbing Miami Center
Fri 11:48:38 AM 26.2344 -80.1897 281° West 245 282 8,900 556 Climbing Miami Center
Fri 11:49:38 AM 26.2494 -80.2733 279° West 278 320 8,900 50 Level Miami Center
Fri 11:50:38 AM 26.2619 -80.3619 278° West 267 307 9,000 50 Climbing Miami Center
Fri 11:51:38 AM 26.2706 -80.4292 280° West 256 295 9,000 1,600 Level Miami Center
Fri 11:52:38 AM 26.2833 -80.5086 285° West 243 280 12,200 2,750 Climbing Miami Center
Fri 11:53:38 AM 26.2967 -80.5644 306° West 223 257 14,500 2,250 Climbing Miami Center
Fri 11:54:38 AM 26.3367 -80.6258 309° West 217 250 16,700 1,850 Climbing Miami Center
Fri 11:55:38 AM 26.3731 -80.6758 311° West 224 258 18,200 1,650 Climbing Miami Center
Fri 11:56:38 AM 26.4156 -80.7306 329° Northwest 224 258 20,000 1,600 Climbing Miami Center
Fri 11:57:38 AM 26.4628 -80.7622 330° Northwest 219 252 21,400 1,400 Climbing Miami Center
Fri 11:58:38 AM 26.5242 -80.8014 332° Northwest 219 252 22,800 1,300 Climbing Miami Center
Fri 11:59:38 AM 26.5778 -80.8333 326° Northwest 235 270 24,000 1,300 Climbing Miami Center
Fri 12:00:38 PM 26.6411 -80.8819 325° Northwest 251 289 25,400 1,300 Climbing Miami Center
Fri 12:01:38 PM 26.6942 -80.9233 327° Northwest 256 295 26,600 1,250 Climbing Miami Center
Fri 12:02:38 PM 26.7617 -80.9722 328° Northwest 262 302 27,900 1,500 Climbing Miami Center
Fri 12:03:38 PM 26.8150 -81.0089 329° Northwest 257 296 29,600 1,550 Climbing Miami Center
Fri 12:04:38 PM 26.8703 -81.0458 334° Northwest 251 289 31,000 1,350 Climbing Miami Center
Fri 12:05:38 PM 26.9339 -81.0808 319° Northwest 235 270 32,300 1,050 Climbing Miami Center
Fri 12:06:38 PM 26.9808 -81.1267 321° Northwest 230 265 33,100 850 Climbing Miami Center
Fri 12:07:38 PM 27.0314 -81.1728 317° Northwest 230 265 34,000 850 Climbing Miami Center
Fri 12:08:38 PM 27.0800 -81.2236 294° West 236 272 34,800 850 Climbing Miami Center
Fri 12:09:38 PM 27.1053 -81.2875 284° West 229 264 35,700 900 Climbing Miami Center
Fri 12:10:38 PM 27.1200 -81.3533 286° West 223 257 36,600 800 Climbing Miami Center
Fri 12:11:38 PM 27.1367 -81.4194 286° West 218 251 37,300 700 Climbing Miami Center
Fri 12:12:38 PM 27.1533 -81.4853 284° West 224 258 38,000 350 Climbing Miami Center
Fri 12:13:38 PM 27.1697 -81.5608 287° West 230 265 38,000  Level Miami Center
Fri 12:14:38 PM 27.1883 -81.6314 285° West 254 292 38,000  Level Miami Center
Fri 12:15:38 PM 27.2103 -81.7236 285° West 268 308 38,000  Level Miami Center
Fri 12:16:38 PM 27.2303 -81.8083 284° West 283 326 38,000  Level Miami Center
Fri 12:17:38 PM 27.2503 -81.8956 286° West 288 331 38,000 50 Level Miami Center
Fri 12:18:38 PM 27.2706 -81.9758 284° West 293 337 38,100 600 Climbing Miami Center
Fri 12:19:38 PM 27.2883 -82.0583 285° West 293 337 39,200 900 Climbing Miami Center
Fri 12:20:38 PM 27.3083 -82.1411 285° West 270 311 39,900 400 Climbing Miami Center
Fri 12:21:38 PM 27.3264 -82.2167 284° West 257 296 40,000 50 Climbing Miami Center
Fri 12:22:38 PM 27.3444 -82.2969 284° West 257 296 40,000  Level Miami Center
Fri 12:23:38 PM 27.3603 -82.3703 284° West 268 308 40,000  Level Miami Center
Fri 12:24:38 PM 27.3781 -82.4528 285° West 276 318 40,000  Level Miami Center
Fri 12:25:38 PM 27.3994 -82.5450 285° West 282 325 40,000  Level Miami Center
Fri 12:26:39 PM 27.4192 -82.6278 281° West 282 325 40,000  Level Miami Center
Fri 12:27:38 PM 27.4344 -82.7150 281° West 282 325 40,000  Level Miami Center
Fri 12:28:38 PM 27.4481 -82.7906 283° West 282 325 40,000  Level Miami Center
Fri 12:29:38 PM 27.4653 -82.8758 283° West 282 325 40,000  Level Miami Center
Fri 12:30:38 PM 27.4825 -82.9608 280° West 282 325 40,000  Level Miami Center
Fri 12:31:38 PM 27.4956 -83.0458 283° West 277 319 40,000  Level Miami Center
Fri 12:32:38 PM 27.5128 -83.1308 280° West 277 319 40,000  Level Miami Center
Fri 12:33:38 PM 27.5258 -83.2158 282° West 277 319 40,000  Level Miami Center
Fri 12:34:38 PM 27.5408 -83.2986 284° West 277 319 40,000  Level Miami Center
Fri 12:35:38 PM 27.5600 -83.3861 282° West 277 319 40,000  Level Miami Center
Fri 12:36:38 PM 27.5750 -83.4689 280° West 277 319 40,000  Level Miami Center
Fri 12:37:38 PM 27.5878 -83.5517 283° West 277 319 40,000  Level Miami Center
Fri 12:38:38 PM 27.6047 -83.6369 281° West 277 319 40,000  Level Miami Center
Fri 12:39:38 PM 27.6194 -83.7197 280° West 277 319 40,000  Level Miami Center
Fri 12:40:38 PM 27.6322 -83.8025 282° West 277 319 40,000  Level Miami Center
Fri 12:41:38 PM 27.6489 -83.8878 280° West 277 319 40,000  Level Miami Center
Fri 12:42:38 PM 27.6617 -83.9706 281° West 277 319 40,000  Level Miami Center
Fri 12:43:38 PM 27.6761 -84.0533 284° West 277 319 40,000  Level Miami Center
Fri 12:44:38 PM 27.6950 -84.1364 279° West 277 319 40,000  Level Miami Center
Fri 12:45:38 PM 27.7072 -84.2217 282° West 277 319 40,000  Level Miami Center
Fri 12:47:59 PM 27.7444 -84.4283 280° West 280 322 40,000  Level Jacksonville Center
Fri 12:48:59 PM 27.7581 -84.5128 282° West 280 322 40,000  Level Jacksonville Center
Fri 12:49:59 PM 27.7736 -84.5975 280° West 280 322 40,000  Level Jacksonville Center
Fri 12:50:59 PM 27.7869 -84.6844 277° West 280 322 40,000  Level Jacksonville Center
Fri 12:51:59 PM 27.7961 -84.7669 287° West 275 316 40,000  Level Jacksonville Center
Fri 12:52:59 PM 27.8158 -84.8422 279° West 281 323 40,000  Level Jacksonville Center
Fri 12:53:59 PM 27.8292 -84.9339 282° West 275 316 40,000  Level Jacksonville Center
Fri 12:54:59 PM 27.8444 -85.0142 279° West 276 318 40,000  Level Jacksonville Center
Fri 12:55:59 PM 27.8575 -85.1036 282° West 282 325 40,000  Level Jacksonville Center
Fri 12:56:59 PM 27.8728 -85.1883 281° West 287 330 40,000  Level Jacksonville Center
Fri 12:57:59 PM 27.8881 -85.2756 289° West 285 328 40,000  Level Jacksonville Center
Fri 12:58:59 PM 27.9136 -85.3608 290° West 280 322 40,000  Level Jacksonville Center
Fri 12:59:59 PM 27.9411 -85.4483 289° West 286 329 40,000  Level Jacksonville Center
Fri 01:00:59 PM 27.9664 -85.5336 290° West 286 329 40,000  Level Jacksonville Center
Fri 01:01:59 PM 27.9919 -85.6117 288° West 281 323 40,000  Level Jacksonville Center
Fri 01:02:59 PM 28.0172 -85.6994 289° West 286 329 40,000  Level Jacksonville Center
Fri 01:03:59 PM 28.0425 -85.7825 289° West 291 335 40,000  Level Jacksonville Center
Fri 01:04:59 PM 28.0675 -85.8656 289° West 285 328 40,000  Level Jacksonville Center
Fri 01:05:59 PM 28.0928 -85.9508 288° West 290 334 40,000  Level Jacksonville Center
Fri 01:06:59 PM 28.1178 -86.0364 290° West 284 327 40,000  Level Jacksonville Center
Fri 01:07:59 PM 28.1450 -86.1219 287° West 289 333 40,000  Level Jacksonville Center
Fri 01:08:59 PM 28.1678 -86.2075 289° West 289 333 40,000  Level Jacksonville Center
Fri 01:09:59 PM 28.1928 -86.2883 288° West 283 326 40,000  Level Jacksonville Center
Fri 01:10:59 PM 28.2158 -86.3667 289° West 283 326 40,000  Level Jacksonville Center
Fri 01:11:59 PM 28.2425 -86.4572 287° West 290 334 40,000  Level Jacksonville Center
Fri 01:12:59 PM 28.2633 -86.5333 290° West 278 320 40,000  Level Jacksonville Center
Fri 01:13:59 PM 28.2919 -86.6214 288° West 286 329 40,000  Level Jacksonville Center
Fri 01:14:59 PM 28.3167 -86.7072 289° West 286 329 40,000  Level Jacksonville Center
Fri 01:15:59 PM 28.3414 -86.7883 287° West 286 329 40,000  Level Jacksonville Center
Fri 01:16:59 PM 28.3639 -86.8719 290° West 281 323 40,000  Level Jacksonville Center
Fri 01:17:59 PM 28.3903 -86.9553 287° West 287 330 40,000  Level Jacksonville Center
Fri 01:18:59 PM 28.4128 -87.0367 288° West 282 325 40,000  Level Jacksonville Center
Fri 01:19:59 PM 28.4372 -87.1225 289° West 282 325 40,000  Level Jacksonville Center
Fri 01:20:59 PM 28.4617 -87.2039 289° West 287 330 40,000  Level Jacksonville Center
Fri 01:21:59 PM 28.4878 -87.2900 287° West 287 330 40,000  Level Jacksonville Center
Fri 01:23:47 PM 28.5269 -87.4353 292° West 280 322 40,000  Level Houston Center
Fri 01:24:47 PM 28.5614 -87.5333 297° West 285 328 40,000  Level Houston Center
Fri 01:25:47 PM 28.6061 -87.6333 270° West 348 400 40,000  Level Houston Center
Fri 01:26:47 PM 28.6058 -87.6972 288° West 275 316 40,000  Level Houston Center
Fri 01:27:47 PM 28.6292 -87.7792 287° West 269 310 40,000  Level Houston Center
Fri 01:28:47 PM 28.6500 -87.8589 285° West 276 318 40,000  Level Houston Center
Fri 01:29:47 PM 28.6689 -87.9386 297° West 270 311 40,000  Level Houston Center
Fri 01:30:47 PM 28.7022 -88.0133 297° West 285 328 40,000  Level Houston Center
Fri 01:31:47 PM 28.7378 -88.0928 316° Northwest 270 311 40,000  Level Houston Center
Fri 01:32:47 PM 28.7936 -88.1547 308° West 264 304 40,000  Level Houston Center
Fri 01:33:47 PM 28.8436 -88.2267 313° West 278 320 40,000  Level Houston Center
Fri 01:34:47 PM 28.8994 -88.2961 314° West 283 326 40,000  Level Houston Center
Fri 01:35:47 PM 28.9533 -88.3608 311° West 288 331 40,000 -150 Level Houston Center
Fri 01:36:47 PM 29.0072 -88.4328 312° West 288 331 39,700 -950 Descending Houston Center
Fri 01:37:47 PM 29.0653 -88.5069 311° West 298 343 38,100 -1,500 Descending Houston Center
Fri 01:38:47 PM 29.1236 -88.5836 311° West 313 360 36,700 -1,450 Descending Houston Center
Fri 01:39:47 PM 29.1836 -88.6628 312° West 323 372 35,200 -1,500 Descending Houston Center
Fri 01:40:47 PM 29.2461 -88.7419 312° West 328 377 33,700 -1,550 Descending Houston Center
Fri 01:41:47 PM 29.3083 -88.8214 312° West 328 377 32,100 -1,600 Descending Houston Center
Fri 01:42:47 PM 29.3706 -88.9006 311° West 333 383 30,500 -1,650 Descending Houston Center
Fri 01:43:47 PM 29.4306 -88.9800 311° West 333 383 28,800 -1,750 Descending Houston Center
Fri 01:44:47 PM 29.4969 -89.0667 312° West 339 390 27,000 -1,800 Descending Houston Center
Fri 01:45:47 PM 29.5653 -89.1533 312° West 353 406 25,200 -1,800 Descending Houston Center
Fri 01:46:47 PM 29.6317 -89.2378 310° West 359 413 23,400 -1,680 Descending Houston Center
Fri 01:47:52 PM 29.7064 -89.3411 311° West 366 421 21,700 -1,570 Descending Houston Center
Fri 01:48:34 PM 29.7533 -89.4025 311° West 366 421 20,600 -1,573 Descending Houston Center
Fri 01:49:35 PM 29.8175 -89.4872 313° West 365 420 19,000 -1,489 Descending Houston Center
Fri 01:50:47 PM 29.8961 -89.5861 308° West 364 419 17,300 -1,438 Descending Houston Center
Fri 01:51:36 PM 29.9475 -89.6619 312° West 350 403 16,100 -709 Descending Houston Center
Fri 01:52:37 PM 30.0114 -89.7444 311° West 340 391 16,000 -50 Descending Houston Center
Fri 01:53:37 PM 30.0731 -89.8275 310° West 325 374 16,000 -298 Level Houston Center
Fri 01:54:38 PM 30.1283 -89.9033 312° West 322 371 15,400 -1,082 Descending Houston Center
Fri 01:55:39 PM 30.1942 -89.9886 310° West 345 397 13,800 -1,884 Descending Houston Center
Fri 01:56:39 PM 30.2536 -90.0694 282° West 334 384 11,600 -2,231 Descending Houston Center
Fri 01:57:40 PM 30.2714 -90.1700 281° West 300 345 9,300 -2,115 Descending Houston Center
Fri 01:58:41 PM 30.2869 -90.2614 282° West 287 330 7,300 -1,890 Descending Houston Center
Fri 01:59:47 PM 30.3025 -90.3453 330° Northwest 297 342 5,300 -1,835 Descending Houston Center
Fri 02:00:42 PM 30.3717 -90.3925 North 275 316 3,600 -1,473 Descending Houston Center
Fri 02:01:37 PM 30.4428 -90.3917 24° Northeast 292 336 2,600 -694 Descending Houston Center
Fri 02:02:43 PM 30.5194 -90.3522 331° Northwest 287 330 2,200 -283 Descending Houston Center
Fri 02:03:44 PM 30.5825 -90.3922 206° Southwest 273 314 2,000 -344 Descending Houston Center
Fri 02:04:45 PM 30.5244 -90.4244 22° Northeast 274 315 1,500 -541 Descending Houston Center
Fri 02:05:46 PM 30.5453 -90.4144 209° Southwest 149 171 900 -541 Descending Houston Center
Fri 02:06:47 PM 30.5222 -90.4292 209° Southwest 117 135 400 -492 Descending Houston Center

Login

Don't have an account? Register now (free) for customized features, flight alerts, and more!